createdAt,value
2019-05-19T00:00:18.548Z,65.40
2019-05-19T00:01:19.566Z,65.50
2019-05-19T00:02:20.584Z,65.20
2019-05-19T00:03:21.808Z,65.10
2019-05-19T00:04:22.824Z,65.00
2019-05-19T00:05:23.832Z,65.10
2019-05-19T00:06:24.856Z,65.00
2019-05-19T00:07:25.865Z,65.00
2019-05-19T00:08:26.917Z,64.80
2019-05-19T00:09:27.941Z,64.80
2019-05-19T00:10:28.960Z,64.70
2019-05-19T00:11:30.235Z,64.50
2019-05-19T00:12:31.280Z,64.40
2019-05-19T00:13:32.466Z,64.30
2019-05-19T00:14:33.588Z,64.50
2019-05-19T00:15:34.592Z,64.50
2019-05-19T00:16:35.611Z,64.50
2019-05-19T00:17:36.668Z,64.10
2019-05-19T00:18:37.692Z,64.50
2019-05-19T00:19:38.704Z,64.80
2019-05-19T00:20:39.729Z,64.30
2019-05-19T00:21:40.732Z,64.00
2019-05-19T00:22:41.752Z,64.10
2019-05-19T00:23:42.773Z,64.80
2019-05-19T00:24:43.780Z,64.00
2019-05-19T00:25:44.795Z,64.50
2019-05-19T00:26:46.141Z,64.40
2019-05-19T00:27:47.155Z,64.10
2019-05-19T00:28:48.184Z,64.50
2019-05-19T00:29:49.427Z,64.30
2019-05-19T00:30:50.446Z,64.50
2019-05-19T00:31:51.462Z,64.30
2019-05-19T00:32:52.490Z,64.30
2019-05-19T00:33:53.506Z,64.10
2019-05-19T00:34:54.866Z,64.20
2019-05-19T00:35:55.877Z,64.10
2019-05-19T00:36:56.893Z,64.60
2019-05-19T00:37:57.921Z,64.40
2019-05-19T00:38:58.930Z,64.50
2019-05-19T00:39:59.940Z,64.60
2019-05-19T00:41:00.952Z,64.70
2019-05-19T00:42:01.957Z,64.80
2019-05-19T00:43:02.978Z,64.80
2019-05-19T00:44:04.100Z,64.90
2019-05-19T00:45:06.390Z,64.80
2019-05-19T00:46:07.410Z,65.00
2019-05-19T00:47:08.424Z,65.00
2019-05-19T00:48:09.441Z,65.20
2019-05-19T00:49:10.456Z,65.00
2019-05-19T00:50:11.981Z,64.70
2019-05-19T00:51:13.101Z,64.70
2019-05-19T00:52:14.208Z,64.80
2019-05-19T00:53:15.232Z,65.00
2019-05-19T00:54:16.397Z,65.00
2019-05-19T00:55:17.463Z,65.00
2019-05-19T00:56:19.273Z,65.10
2019-05-19T00:57:21.205Z,65.40
2019-05-19T00:58:23.840Z,65.40
2019-05-19T00:59:25.568Z,65.40
2019-05-19T01:00:26.580Z,65.50
2019-05-19T01:01:27.599Z,65.50
2019-05-19T01:02:28.711Z,65.30
2019-05-19T01:03:29.725Z,65.10
2019-05-19T01:04:30.738Z,65.20
2019-05-19T01:05:31.765Z,65.00
2019-05-19T01:06:32.772Z,65.00
2019-05-19T01:07:34.191Z,65.00
2019-05-19T01:08:35.204Z,65.20
2019-05-19T01:09:36.336Z,65.10
2019-05-19T01:10:37.343Z,65.20
2019-05-19T01:11:38.375Z,65.20
2019-05-19T01:12:39.648Z,65.40
2019-05-19T01:13:40.665Z,65.50
2019-05-19T01:14:41.676Z,65.50
2019-05-19T01:15:42.761Z,65.60
2019-05-19T01:16:43.769Z,65.80
2019-05-19T01:17:44.790Z,66.10
2019-05-19T01:18:46.039Z,66.20
2019-05-19T01:19:55.598Z,66.20
2019-05-19T01:20:49.979Z,66.30
2019-05-19T01:21:51.193Z,66.30
2019-05-19T01:22:52.196Z,66.30
2019-05-19T01:23:53.212Z,66.40
2019-05-19T01:24:54.238Z,66.30
2019-05-19T01:25:55.248Z,66.10
2019-05-19T01:26:56.258Z,66.20
2019-05-19T01:27:57.273Z,66.70
2019-05-19T01:28:58.279Z,66.00
2019-05-19T01:29:59.311Z,66.00
2019-05-19T01:31:00.492Z,66.00
2019-05-19T01:32:01.759Z,66.10
2019-05-19T01:33:02.862Z,66.30
2019-05-19T01:34:04.010Z,66.30
2019-05-19T01:35:05.297Z,66.30
2019-05-19T01:36:06.309Z,66.20
2019-05-19T01:37:07.322Z,66.20
2019-05-19T01:38:08.333Z,66.20
2019-05-19T01:39:09.575Z,66.20
2019-05-19T01:40:11.383Z,66.70
2019-05-19T01:41:12.392Z,66.80
2019-05-19T01:42:13.433Z,66.90
2019-05-19T01:43:14.535Z,66.50
2019-05-19T01:44:15.569Z,66.50
2019-05-19T01:45:16.695Z,66.70
2019-05-19T01:46:17.799Z,67.20
2019-05-19T01:47:19.097Z,67.20
2019-05-19T01:48:20.132Z,67.20
2019-05-19T01:49:21.160Z,67.00
2019-05-19T01:50:22.193Z,67.90
2019-05-19T01:51:23.277Z,66.90
2019-05-19T01:52:24.288Z,66.70
2019-05-19T01:53:25.308Z,66.70
2019-05-19T01:54:26.345Z,67.00
2019-05-19T01:55:27.368Z,67.00
2019-05-19T01:56:28.375Z,66.90
2019-05-19T01:57:29.384Z,66.80
2019-05-19T01:58:30.406Z,66.70
2019-05-19T01:59:31.472Z,66.80
2019-05-19T02:00:32.547Z,66.70
2019-05-19T02:01:33.562Z,66.50
2019-05-19T02:02:34.572Z,66.60
2019-05-19T02:03:35.581Z,66.70
2019-05-19T02:04:36.606Z,67.10
2019-05-19T02:05:37.631Z,67.00
2019-05-19T02:06:38.751Z,67.00
2019-05-19T02:07:39.772Z,67.10
2019-05-19T02:08:40.903Z,67.30
2019-05-19T02:09:42.162Z,67.00
2019-05-19T02:10:43.310Z,67.10
2019-05-19T02:11:44.320Z,67.00
2019-05-19T02:12:45.337Z,67.00
2019-05-19T02:13:46.371Z,67.00
2019-05-19T02:14:47.407Z,66.90
2019-05-19T02:15:48.408Z,67.00
2019-05-19T02:16:49.491Z,67.00
2019-05-19T02:17:50.501Z,67.10
2019-05-19T02:18:51.763Z,67.30
2019-05-19T02:19:52.798Z,67.40
2019-05-19T02:20:53.812Z,67.20
2019-05-19T02:21:54.819Z,67.20
2019-05-19T02:22:55.828Z,67.00
2019-05-19T02:23:56.844Z,67.00
2019-05-19T02:24:57.878Z,67.00
2019-05-19T02:25:58.981Z,67.00
2019-05-19T02:26:59.988Z,67.10
2019-05-19T02:28:01.008Z,67.30
2019-05-19T02:29:02.066Z,67.00
2019-05-19T02:30:05.827Z,66.80
2019-05-19T02:31:06.847Z,66.80
2019-05-19T02:32:07.847Z,66.70
2019-05-19T02:33:09.159Z,66.70
2019-05-19T02:34:10.179Z,66.60
2019-05-19T02:35:11.800Z,66.70
2019-05-19T02:36:12.817Z,66.90
2019-05-19T02:37:13.856Z,67.00
2019-05-19T02:38:14.856Z,66.70
2019-05-19T02:39:15.973Z,66.60
2019-05-19T02:40:17.501Z,66.60
2019-05-19T02:41:20.544Z,67.00
2019-05-19T02:42:24.241Z,67.10
2019-05-19T02:43:26.068Z,67.00
2019-05-19T02:44:27.967Z,66.90
2019-05-19T02:45:32.427Z,67.00
2019-05-19T02:46:34.001Z,66.90
2019-05-19T02:47:37.030Z,67.00
2019-05-19T02:48:39.032Z,67.10
2019-05-19T02:49:41.976Z,67.40
2019-05-19T02:50:52.219Z,67.50
2019-05-19T02:51:48.981Z,67.50
2019-05-19T02:52:51.981Z,67.90
2019-05-19T02:53:53.693Z,68.00
2019-05-19T02:54:55.116Z,68.30
2019-05-19T02:55:57.541Z,68.30
2019-05-19T02:56:59.752Z,68.30
2019-05-19T02:58:01.956Z,68.20
2019-05-19T02:59:03.364Z,68.40
2019-05-19T03:00:06.092Z,68.70
2019-05-19T03:01:07.105Z,68.70
2019-05-19T03:02:10.039Z,68.80
2019-05-19T03:03:11.041Z,69.60
2019-05-19T03:04:12.053Z,68.90
2019-05-19T03:05:13.168Z,69.00
2019-05-19T03:06:14.203Z,69.10
2019-05-19T03:07:15.204Z,69.10
2019-05-19T03:08:16.229Z,68.70
2019-05-19T03:09:17.233Z,69.10
2019-05-19T03:10:18.254Z,69.10
2019-05-19T03:11:19.268Z,69.10
2019-05-19T03:12:20.285Z,69.10
2019-05-19T03:13:21.293Z,69.30
2019-05-19T03:14:22.322Z,69.40
2019-05-19T03:15:23.323Z,69.30
2019-05-19T03:16:24.353Z,69.30
2019-05-19T03:17:25.350Z,69.40
2019-05-19T03:18:26.373Z,69.50
2019-05-19T03:19:27.376Z,69.70
2019-05-19T03:20:28.385Z,69.50
2019-05-19T03:21:29.400Z,69.50
2019-05-19T03:22:30.419Z,69.40
2019-05-19T03:23:31.445Z,69.50
2019-05-19T03:24:32.449Z,69.60
2019-05-19T03:25:33.474Z,69.70
2019-05-19T03:26:34.789Z,69.60
2019-05-19T03:27:35.845Z,69.50
2019-05-19T03:28:36.913Z,69.50
2019-05-19T03:29:39.907Z,69.50
2019-05-19T03:30:51.552Z,69.50
2019-05-19T03:32:00.237Z,69.50
2019-05-19T03:33:06.075Z,69.60
2019-05-19T03:34:07.080Z,69.80
2019-05-19T03:35:08.189Z,69.60
2019-05-19T03:36:09.225Z,69.70
2019-05-19T03:37:10.245Z,69.70
2019-05-19T03:38:11.257Z,69.60
2019-05-19T03:39:12.266Z,69.80
2019-05-19T03:40:19.338Z,69.80
2019-05-19T03:41:20.366Z,70.00
2019-05-19T03:42:21.369Z,70.00
2019-05-19T03:43:22.385Z,70.00
2019-05-19T03:44:23.404Z,70.10
2019-05-19T03:45:24.425Z,70.40
2019-05-19T03:46:25.445Z,70.30
2019-05-19T03:47:26.460Z,70.30
2019-05-19T03:48:27.493Z,70.50
2019-05-19T03:49:28.500Z,70.70
2019-05-19T03:50:29.511Z,70.80
2019-05-19T03:51:31.881Z,71.00
2019-05-19T03:52:33.253Z,71.10
2019-05-19T03:53:34.269Z,71.30
2019-05-19T03:54:35.283Z,71.40
2019-05-19T03:55:36.299Z,71.40
2019-05-19T03:56:37.777Z,71.60
2019-05-19T03:57:38.788Z,71.80
2019-05-19T03:58:39.800Z,72.10
2019-05-19T03:59:40.929Z,72.30
2019-05-19T04:00:41.939Z,72.60
2019-05-19T04:01:42.975Z,72.50
2019-05-19T04:02:44.020Z,72.50
2019-05-19T04:03:45.041Z,72.60
2019-05-19T04:04:46.061Z,72.50
2019-05-19T04:05:47.081Z,72.60
2019-05-19T04:06:48.106Z,72.60
2019-05-19T04:07:49.140Z,72.50
2019-05-19T04:08:50.197Z,72.30
2019-05-19T04:09:51.218Z,72.20
2019-05-19T04:10:52.216Z,72.30
2019-05-19T04:11:53.244Z,72.10
2019-05-19T04:12:54.277Z,72.40
2019-05-19T04:13:55.285Z,72.50
2019-05-19T04:14:56.292Z,73.50
2019-05-19T04:15:57.301Z,72.60
2019-05-19T04:16:58.325Z,72.60
2019-05-19T04:17:59.344Z,72.60
2019-05-19T04:19:00.365Z,72.60
2019-05-19T04:20:01.385Z,72.30
2019-05-19T04:21:02.387Z,72.30
2019-05-19T04:22:03.420Z,72.10
2019-05-19T04:23:04.433Z,72.60
2019-05-19T04:24:05.447Z,72.20
2019-05-19T04:25:06.648Z,72.00
2019-05-19T04:26:07.666Z,72.00
2019-05-19T04:27:08.683Z,72.00
2019-05-19T04:28:09.693Z,71.80
2019-05-19T04:29:10.704Z,71.80
2019-05-19T04:30:12.028Z,71.60
2019-05-19T04:31:13.027Z,71.50
2019-05-19T04:32:14.068Z,71.30
2019-05-19T04:33:15.169Z,71.40
2019-05-19T04:34:16.177Z,71.30
2019-05-19T04:35:17.193Z,71.20
2019-05-19T04:36:18.487Z,71.20
2019-05-19T04:37:19.506Z,71.10
2019-05-19T04:38:20.517Z,71.00
2019-05-19T04:39:21.527Z,70.80
2019-05-19T04:40:22.536Z,71.00
2019-05-19T04:41:23.550Z,70.90
2019-05-19T04:42:24.602Z,70.80
2019-05-19T04:43:25.697Z,70.80
2019-05-19T04:44:26.707Z,70.80
2019-05-19T04:45:27.720Z,70.40
2019-05-19T04:46:28.744Z,70.60
2019-05-19T04:47:29.763Z,70.40
2019-05-19T04:48:30.781Z,70.10
2019-05-19T04:49:31.797Z,70.00
2019-05-19T04:50:32.801Z,69.20
2019-05-19T04:51:33.814Z,68.90
2019-05-19T04:52:34.858Z,68.40
2019-05-19T04:53:35.872Z,68.40
2019-05-19T04:54:37.149Z,68.40
2019-05-19T04:55:38.161Z,68.40
2019-05-19T04:56:39.176Z,68.50
2019-05-19T04:57:40.201Z,68.90
2019-05-19T04:58:41.324Z,68.50
2019-05-19T04:59:42.365Z,68.50
2019-05-19T05:00:43.390Z,68.50
2019-05-19T05:01:44.415Z,68.50
2019-05-19T05:02:45.670Z,68.40
2019-05-19T05:03:46.692Z,68.40
2019-05-19T05:04:47.718Z,68.30
2019-05-19T05:05:48.725Z,68.50
2019-05-19T05:06:49.729Z,68.50
2019-05-19T05:07:50.747Z,68.40
2019-05-19T05:08:51.768Z,67.90
2019-05-19T05:09:52.775Z,67.90
2019-05-19T05:10:53.799Z,67.60
2019-05-19T05:11:54.827Z,67.50
2019-05-19T05:12:55.844Z,67.60
2019-05-19T05:13:56.853Z,67.90
2019-05-19T05:14:57.874Z,67.80
2019-05-19T05:15:58.881Z,67.50
2019-05-19T05:16:59.895Z,67.60
2019-05-19T05:18:00.917Z,67.50
2019-05-19T05:19:01.965Z,67.70
2019-05-19T05:20:05.361Z,67.80
2019-05-19T05:21:06.376Z,68.20
2019-05-19T05:22:21.207Z,68.30
2019-05-19T05:23:10.315Z,68.20
2019-05-19T05:24:11.323Z,68.30
2019-05-19T05:25:12.735Z,68.30
2019-05-19T05:26:13.748Z,68.00
2019-05-19T05:27:14.756Z,67.90
2019-05-19T05:28:15.776Z,67.70
2019-05-19T05:29:16.789Z,67.50
2019-05-19T05:30:18.009Z,67.60
2019-05-19T05:31:19.019Z,67.50
2019-05-19T05:32:20.024Z,67.40
2019-05-19T05:33:21.049Z,67.20
2019-05-19T05:34:22.060Z,67.40
2019-05-19T05:35:23.078Z,67.40
2019-05-19T05:36:24.083Z,67.90
2019-05-19T05:37:25.105Z,68.00
2019-05-19T05:38:26.124Z,68.40
2019-05-19T05:39:27.136Z,68.40
2019-05-19T05:40:28.148Z,68.40
2019-05-19T05:41:29.168Z,68.50
2019-05-19T05:42:31.924Z,68.30
2019-05-19T05:43:33.152Z,68.50
2019-05-19T05:44:34.232Z,68.40
2019-05-19T05:45:35.251Z,68.50
2019-05-19T05:46:36.559Z,68.30
2019-05-19T05:47:37.581Z,68.40
2019-05-19T05:48:38.696Z,68.40
2019-05-19T05:49:39.717Z,68.60
2019-05-19T05:50:40.729Z,68.80
2019-05-19T05:51:41.741Z,68.70
2019-05-19T05:52:43.053Z,68.90
2019-05-19T05:53:44.075Z,68.50
2019-05-19T05:54:45.107Z,68.60
2019-05-19T05:55:46.128Z,68.70
2019-05-19T05:56:47.380Z,68.70
2019-05-19T05:57:48.390Z,68.50
2019-05-19T05:58:49.517Z,68.50
2019-05-19T05:59:50.536Z,68.90
2019-05-19T06:00:51.596Z,67.50
2019-05-19T06:01:52.690Z,67.50
2019-05-19T06:02:53.691Z,67.00
2019-05-19T06:03:54.807Z,67.10
2019-05-19T06:04:55.817Z,66.80
2019-05-19T06:05:56.840Z,66.70
2019-05-19T06:06:58.103Z,66.60
2019-05-19T06:07:59.126Z,66.80
2019-05-19T06:09:00.148Z,66.60
2019-05-19T06:10:01.509Z,66.70
2019-05-19T06:11:02.504Z,66.70
2019-05-19T06:12:03.526Z,66.80
2019-05-19T06:13:04.540Z,67.00
2019-05-19T06:14:05.586Z,66.80
2019-05-19T06:15:06.774Z,67.00
2019-05-19T06:16:07.783Z,67.00
2019-05-19T06:17:08.784Z,67.70
2019-05-19T06:18:09.850Z,67.70
2019-05-19T06:19:11.182Z,67.70
2019-05-19T06:20:12.202Z,67.80
2019-05-19T06:21:13.200Z,67.70
2019-05-19T06:22:14.312Z,67.60
2019-05-19T06:23:15.341Z,67.70
2019-05-19T06:24:16.362Z,67.90
2019-05-19T06:25:17.467Z,67.80
2019-05-19T06:26:18.473Z,67.80
2019-05-19T06:27:19.493Z,67.50
2019-05-19T06:28:20.508Z,67.90
2019-05-19T06:29:21.524Z,67.80
2019-05-19T06:30:22.824Z,67.80
2019-05-19T06:31:23.854Z,67.70
2019-05-19T06:32:32.367Z,67.80
2019-05-19T06:33:33.410Z,68.00
2019-05-19T06:34:34.493Z,68.10
2019-05-19T06:35:35.501Z,67.50
2019-05-19T06:36:36.508Z,67.50
2019-05-19T06:37:37.518Z,67.60
2019-05-19T06:38:38.565Z,67.60
2019-05-19T06:39:39.766Z,67.50
2019-05-19T06:40:40.815Z,67.60
2019-05-19T06:41:41.820Z,67.60
2019-05-19T06:42:42.852Z,67.80
2019-05-19T06:43:43.924Z,67.50
2019-05-19T06:44:44.964Z,67.50
2019-05-19T06:45:45.985Z,67.40
2019-05-19T06:46:47.000Z,66.90
2019-05-19T06:47:48.010Z,67.20
2019-05-19T06:48:49.033Z,67.00
2019-05-19T06:49:50.037Z,67.00
2019-05-19T06:50:51.047Z,67.10
2019-05-19T06:51:52.053Z,66.80
2019-05-19T06:52:53.391Z,66.80
2019-05-19T06:53:54.418Z,66.90
2019-05-19T06:54:55.433Z,66.60
2019-05-19T06:55:56.443Z,66.80
2019-05-19T06:56:57.480Z,66.80
2019-05-19T06:57:58.506Z,66.80
2019-05-19T06:58:59.520Z,66.80
2019-05-19T07:00:00.533Z,66.90
2019-05-19T07:01:01.552Z,66.90
2019-05-19T07:02:03.094Z,67.60
2019-05-19T07:03:04.112Z,66.40
2019-05-19T07:04:05.132Z,66.60
2019-05-19T07:05:06.747Z,67.40
2019-05-19T07:06:08.015Z,67.40
2019-05-19T07:07:09.108Z,66.80
2019-05-19T07:08:10.190Z,66.50
2019-05-19T07:09:11.208Z,66.40
2019-05-19T07:10:12.727Z,66.70
2019-05-19T07:11:13.818Z,66.70
2019-05-19T07:12:14.915Z,66.80
2019-05-19T07:13:16.183Z,66.60
2019-05-19T07:14:17.208Z,66.50
2019-05-19T07:15:18.219Z,66.20
2019-05-19T07:16:19.246Z,66.20
2019-05-19T07:17:20.290Z,66.20
2019-05-19T07:18:21.402Z,66.30
2019-05-19T07:19:22.493Z,66.60
2019-05-19T07:20:23.593Z,66.30
2019-05-19T07:21:24.607Z,66.00
2019-05-19T07:22:25.632Z,66.00
2019-05-19T07:23:28.577Z,65.20
2019-05-19T07:24:29.594Z,65.60
2019-05-19T07:25:30.744Z,66.60
2019-05-19T07:26:32.606Z,65.80
2019-05-19T07:27:33.615Z,65.70
2019-05-19T07:28:34.720Z,66.20
2019-05-19T07:29:36.022Z,65.90
2019-05-19T07:30:37.071Z,65.70
2019-05-19T07:31:38.570Z,65.80
2019-05-19T07:32:39.920Z,65.50
2019-05-19T07:33:40.988Z,66.60
2019-05-19T07:34:42.025Z,65.90
2019-05-19T07:35:43.024Z,66.20
2019-05-19T07:36:44.501Z,66.10
2019-05-19T07:37:45.646Z,65.40
2019-05-19T07:38:46.725Z,65.10
2019-05-19T07:39:47.758Z,65.30
2019-05-19T07:40:48.794Z,65.10
2019-05-19T07:41:49.885Z,64.40
2019-05-19T07:42:50.896Z,64.60
2019-05-19T07:43:52.422Z,64.60
2019-05-19T07:44:53.544Z,64.60
2019-05-19T07:45:54.597Z,64.40
2019-05-19T07:46:55.614Z,64.40
2019-05-19T07:47:56.632Z,64.30
2019-05-19T07:48:57.653Z,65.10
2019-05-19T07:49:58.681Z,64.80
2019-05-19T07:50:59.694Z,64.30
2019-05-19T07:52:00.708Z,64.50
2019-05-19T07:53:01.709Z,64.50
2019-05-19T07:54:02.725Z,64.50
2019-05-19T07:55:05.252Z,64.60
2019-05-19T07:56:06.357Z,64.70
2019-05-19T07:57:07.359Z,64.60
2019-05-19T07:58:08.382Z,64.70
2019-05-19T07:59:09.404Z,64.20
2019-05-19T08:00:10.733Z,64.20
2019-05-19T08:01:11.751Z,64.10
2019-05-19T08:02:12.777Z,64.20
2019-05-19T08:03:13.823Z,64.50
2019-05-19T08:04:14.864Z,64.30
2019-05-19T08:05:15.916Z,64.20
2019-05-19T08:06:16.991Z,63.90
2019-05-19T08:07:18.019Z,63.70
2019-05-19T08:08:19.118Z,63.60
2019-05-19T08:09:20.158Z,63.70
2019-05-19T08:10:21.172Z,63.80
2019-05-19T08:11:22.299Z,63.50
2019-05-19T08:12:23.306Z,63.40
2019-05-19T08:13:24.330Z,63.10
2019-05-19T08:14:25.332Z,63.00
2019-05-19T08:15:26.373Z,63.30
2019-05-19T08:16:27.427Z,63.10
2019-05-19T08:17:28.437Z,63.10
2019-05-19T08:18:29.454Z,62.90
2019-05-19T08:19:30.490Z,62.90
2019-05-19T08:20:31.516Z,63.30
2019-05-19T08:21:32.540Z,63.10
2019-05-19T08:22:33.556Z,63.40
2019-05-19T08:23:34.843Z,63.60
2019-05-19T08:24:35.857Z,63.50
2019-05-19T08:25:36.898Z,63.50
2019-05-19T08:26:37.989Z,63.40
2019-05-19T08:27:38.996Z,63.70
2019-05-19T08:28:40.018Z,63.50
2019-05-19T08:29:41.024Z,63.40
2019-05-19T08:30:42.066Z,63.70
2019-05-19T08:31:43.072Z,63.60
2019-05-19T08:32:44.094Z,63.40
2019-05-19T08:33:45.144Z,63.50
2019-05-19T08:34:46.261Z,63.30
2019-05-19T08:35:47.267Z,62.90
2019-05-19T08:36:48.292Z,62.40
2019-05-19T08:37:49.297Z,62.70
2019-05-19T08:38:50.343Z,62.50
2019-05-19T08:39:51.366Z,61.90
2019-05-19T08:40:52.427Z,61.60
2019-05-19T08:41:53.528Z,61.60
2019-05-19T08:42:54.544Z,61.00
2019-05-19T08:43:55.570Z,61.00
2019-05-19T08:44:56.613Z,61.30
2019-05-19T08:45:57.624Z,61.10
2019-05-19T08:46:58.705Z,61.30
2019-05-19T08:47:59.764Z,62.30
2019-05-19T08:49:00.788Z,61.20
2019-05-19T08:50:05.789Z,60.60
2019-05-19T08:51:06.948Z,61.10
2019-05-19T08:52:08.117Z,60.40
2019-05-19T08:53:09.232Z,60.40
2019-05-19T08:54:15.122Z,60.30
2019-05-19T08:55:13.272Z,60.10
2019-05-19T08:56:14.289Z,60.00
2019-05-19T08:57:15.583Z,60.10
2019-05-19T08:58:16.589Z,60.40
2019-05-19T08:59:17.600Z,59.90
2019-05-19T09:00:18.734Z,59.10
2019-05-19T09:01:19.774Z,59.10
2019-05-19T09:02:20.786Z,59.80
2019-05-19T09:03:21.806Z,59.60
2019-05-19T09:04:22.824Z,59.50
2019-05-19T09:05:23.856Z,59.70
2019-05-19T09:06:24.876Z,59.30
2019-05-19T09:07:25.894Z,58.60
2019-05-19T09:08:26.913Z,58.40
2019-05-19T09:09:27.937Z,58.60
2019-05-19T09:10:28.961Z,58.90
2019-05-19T09:11:29.985Z,58.80
2019-05-19T09:12:31.036Z,58.30
2019-05-19T09:13:32.107Z,58.70
2019-05-19T09:14:33.116Z,58.70
2019-05-19T09:15:34.132Z,58.30
2019-05-19T09:16:35.159Z,58.30
2019-05-19T09:17:36.174Z,57.90
2019-05-19T09:18:37.277Z,58.10
2019-05-19T09:19:38.294Z,58.00
2019-05-19T09:20:39.310Z,58.20
2019-05-19T09:21:40.360Z,58.70
2019-05-19T09:22:41.382Z,58.00
2019-05-19T09:23:42.397Z,59.00
2019-05-19T09:24:43.647Z,58.40
2019-05-19T09:25:44.679Z,58.70
2019-05-19T09:26:45.714Z,58.60
2019-05-19T09:27:46.717Z,58.20
2019-05-19T09:28:47.728Z,58.30
2019-05-19T09:29:48.748Z,58.80
2019-05-19T09:30:49.769Z,58.60
2019-05-19T09:31:50.810Z,58.50
2019-05-19T09:32:52.004Z,58.40
2019-05-19T09:33:53.030Z,58.60
2019-05-19T09:34:54.040Z,58.40
2019-05-19T09:35:55.066Z,58.80
2019-05-19T09:36:56.164Z,58.20
2019-05-19T09:37:57.168Z,58.20
2019-05-19T09:38:58.176Z,58.30
2019-05-19T09:39:59.196Z,58.50
2019-05-19T09:41:00.224Z,58.40
2019-05-19T09:42:01.269Z,58.50
2019-05-19T09:43:02.356Z,58.10
2019-05-19T09:44:03.474Z,57.80
2019-05-19T09:45:06.603Z,57.80
2019-05-19T09:46:07.625Z,58.20
2019-05-19T09:47:08.754Z,58.20
2019-05-19T09:48:09.748Z,57.90
2019-05-19T09:49:29.169Z,57.70
2019-05-19T09:50:30.171Z,57.70
2019-05-19T09:51:31.193Z,57.80
2019-05-19T09:52:32.208Z,57.60
2019-05-19T09:53:33.216Z,57.40
2019-05-19T09:54:44.615Z,57.60
2019-05-19T09:55:37.484Z,57.60
2019-05-19T09:56:38.504Z,57.60
2019-05-19T09:57:39.795Z,57.60
2019-05-19T09:58:40.856Z,57.60
2019-05-19T09:59:41.928Z,57.60
2019-05-19T10:00:43.945Z,57.60
2019-05-19T10:01:44.961Z,57.60
2019-05-19T10:02:46.020Z,57.70
2019-05-19T10:03:47.053Z,57.80
2019-05-19T10:04:48.067Z,57.70
2019-05-19T10:05:49.112Z,57.70
2019-05-19T10:06:50.167Z,57.80
2019-05-19T10:07:51.269Z,57.10
2019-05-19T10:08:52.637Z,56.00
2019-05-19T10:10:05.012Z,56.90
2019-05-19T10:11:28.503Z,56.70
2019-05-19T10:12:29.571Z,56.50
2019-05-19T10:13:30.866Z,56.20
2019-05-19T10:14:31.896Z,56.80
2019-05-19T10:15:32.912Z,56.80
2019-05-19T10:16:33.952Z,56.70
2019-05-19T10:17:35.060Z,56.00
2019-05-19T10:18:36.084Z,56.60
2019-05-19T10:19:37.096Z,56.40
2019-05-19T10:20:38.104Z,55.70
2019-05-19T10:21:39.124Z,55.60
2019-05-19T10:22:40.145Z,55.80
2019-05-19T10:23:41.160Z,54.70
2019-05-19T10:24:57.528Z,54.50
2019-05-19T10:25:45.107Z,55.20
2019-05-19T10:26:46.134Z,55.60
2019-05-19T10:27:47.152Z,55.60
2019-05-19T10:28:48.176Z,55.30
2019-05-19T10:29:49.525Z,55.50
2019-05-19T10:30:50.541Z,55.60
2019-05-19T10:31:54.250Z,55.70
2019-05-19T10:32:54.537Z,55.50
2019-05-19T10:33:55.649Z,55.50
2019-05-19T10:34:56.669Z,55.60
2019-05-19T10:35:57.684Z,55.80
2019-05-19T10:36:58.712Z,55.90
2019-05-19T10:37:59.761Z,56.10
2019-05-19T10:39:00.777Z,56.20
2019-05-19T10:40:03.795Z,56.00
2019-05-19T10:41:04.912Z,55.60
2019-05-19T10:42:05.962Z,55.80
2019-05-19T10:43:06.981Z,55.90
2019-05-19T10:44:07.992Z,55.90
2019-05-19T10:45:09.763Z,55.90
2019-05-19T10:46:10.856Z,55.80
2019-05-19T10:47:11.893Z,55.30
2019-05-19T10:48:12.901Z,55.10
2019-05-19T10:49:13.917Z,55.10
2019-05-19T10:50:15.033Z,54.70
2019-05-19T10:51:16.069Z,54.40
2019-05-19T10:52:17.104Z,54.20
2019-05-19T10:53:18.192Z,54.40
2019-05-19T10:54:19.250Z,55.00
2019-05-19T10:55:20.257Z,54.50
2019-05-19T10:56:21.336Z,54.60
2019-05-19T10:57:22.358Z,54.40
2019-05-19T10:58:23.364Z,54.20
2019-05-19T10:59:24.389Z,54.00
2019-05-19T11:00:25.412Z,53.10
2019-05-19T11:01:26.431Z,52.70
2019-05-19T11:02:27.508Z,52.50
2019-05-19T11:03:28.543Z,53.10
2019-05-19T11:04:29.580Z,53.00
2019-05-19T11:05:30.601Z,52.90
2019-05-19T11:06:31.609Z,53.00
2019-05-19T11:07:32.636Z,53.10
2019-05-19T11:08:33.648Z,52.90
2019-05-19T11:09:34.678Z,52.50
2019-05-19T11:10:35.684Z,52.50
2019-05-19T11:11:36.821Z,52.00
2019-05-19T11:12:37.841Z,52.70
2019-05-19T11:13:38.875Z,52.10
2019-05-19T11:14:39.887Z,52.40
2019-05-19T11:15:40.892Z,52.40
2019-05-19T11:16:41.945Z,52.40
2019-05-19T11:17:43.028Z,52.20
2019-05-19T11:18:44.177Z,51.90
2019-05-19T11:19:45.303Z,51.70
2019-05-19T11:20:46.331Z,51.80
2019-05-19T11:21:47.349Z,51.40
2019-05-19T11:22:48.403Z,50.90
2019-05-19T11:23:49.400Z,50.90
2019-05-19T11:24:50.427Z,50.60
2019-05-19T11:25:51.978Z,50.90
2019-05-19T11:26:53.153Z,50.90
2019-05-19T11:27:54.188Z,50.90
2019-05-19T11:28:55.196Z,50.90
2019-05-19T11:29:56.220Z,51.00
2019-05-19T11:30:57.234Z,51.00
2019-05-19T11:31:58.254Z,51.00
2019-05-19T11:32:59.281Z,50.90
2019-05-19T11:34:00.291Z,50.40
2019-05-19T11:35:01.300Z,50.20
2019-05-19T11:36:02.516Z,50.30
2019-05-19T11:37:03.544Z,50.70
2019-05-19T11:38:04.560Z,50.70
2019-05-19T11:39:06.570Z,51.40
2019-05-19T11:40:07.827Z,50.80
2019-05-19T11:41:08.892Z,49.30
2019-05-19T11:42:09.915Z,50.20
2019-05-19T11:43:11.001Z,50.40
2019-05-19T11:44:12.097Z,50.70
2019-05-19T11:45:13.356Z,50.70
2019-05-19T11:46:14.466Z,50.70
2019-05-19T11:47:15.477Z,50.60
2019-05-19T11:48:16.524Z,50.70
2019-05-19T11:49:17.569Z,50.70
2019-05-19T11:50:18.735Z,50.70
2019-05-19T11:51:19.973Z,51.00
2019-05-19T11:52:20.999Z,50.50
2019-05-19T11:53:22.064Z,50.90
2019-05-19T11:54:23.151Z,50.90
2019-05-19T11:55:24.172Z,50.50
2019-05-19T11:56:25.202Z,50.40
2019-05-19T11:57:26.208Z,50.20
2019-05-19T11:58:27.484Z,50.00
2019-05-19T11:59:28.512Z,49.90
2019-05-19T12:00:29.839Z,50.00
2019-05-19T12:01:30.850Z,50.10
2019-05-19T12:02:31.884Z,49.30
2019-05-19T12:03:32.908Z,49.40
2019-05-19T12:04:33.969Z,49.40
2019-05-19T12:05:35.025Z,49.30
2019-05-19T12:06:39.858Z,49.50
2019-05-19T12:07:39.037Z,49.40
2019-05-19T12:08:40.057Z,48.70
2019-05-19T12:09:41.075Z,49.20
2019-05-19T12:10:42.094Z,49.40
2019-05-19T12:11:43.104Z,49.60
2019-05-19T12:12:44.116Z,49.40
2019-05-19T12:13:45.156Z,49.50
2019-05-19T12:14:46.172Z,49.80
2019-05-19T12:15:47.211Z,49.40
2019-05-19T12:16:48.260Z,49.50
2019-05-19T12:17:49.365Z,49.20
2019-05-19T12:18:50.385Z,49.30
2019-05-19T12:19:51.419Z,49.70
2019-05-19T12:20:52.512Z,49.40
2019-05-19T12:21:53.542Z,49.20
2019-05-19T12:22:54.552Z,49.20
2019-05-19T12:23:55.592Z,48.70
2019-05-19T12:24:56.693Z,49.00
2019-05-19T12:25:57.708Z,49.30
2019-05-19T12:26:58.787Z,49.00
2019-05-19T12:27:59.892Z,48.50
2019-05-19T12:29:00.933Z,48.20
2019-05-19T12:30:03.654Z,48.50
2019-05-19T12:31:04.668Z,48.60
2019-05-19T12:32:05.680Z,48.40
2019-05-19T12:33:06.704Z,48.90
2019-05-19T12:34:07.707Z,49.30
2019-05-19T12:35:08.822Z,49.50
2019-05-19T12:36:10.185Z,49.30
2019-05-19T12:37:11.232Z,49.20
2019-05-19T12:38:12.244Z,49.20
2019-05-19T12:39:13.262Z,49.70
2019-05-19T12:40:14.577Z,49.20
2019-05-19T12:41:15.727Z,49.00
2019-05-19T12:42:17.053Z,48.70
2019-05-19T12:43:18.108Z,48.40
2019-05-19T12:44:19.200Z,47.50
2019-05-19T12:45:20.422Z,47.70
2019-05-19T12:46:21.432Z,48.30
2019-05-19T12:47:22.466Z,47.90
2019-05-19T12:48:23.480Z,47.60
2019-05-19T12:49:24.497Z,48.00
2019-05-19T12:50:25.516Z,47.10
2019-05-19T12:51:26.998Z,46.70
2019-05-19T12:52:28.275Z,47.30
2019-05-19T12:53:29.319Z,47.30
2019-05-19T12:54:30.380Z,47.60
2019-05-19T12:55:31.498Z,47.50
2019-05-19T12:56:39.763Z,47.50
2019-05-19T12:57:35.445Z,47.70
2019-05-19T12:58:36.454Z,47.60
2019-05-19T12:59:37.480Z,47.70
2019-05-19T13:00:38.493Z,47.50
2019-05-19T13:01:39.517Z,47.00
2019-05-19T13:02:40.549Z,47.20
2019-05-19T13:03:41.665Z,47.50
2019-05-19T13:04:42.680Z,47.40
2019-05-19T13:05:43.800Z,47.10
2019-05-19T13:06:44.801Z,47.20
2019-05-19T13:07:45.825Z,47.00
2019-05-19T13:08:46.843Z,45.40